createdAt,value
2017-12-21T00:02:08.580Z,6.37
2017-12-21T00:04:36.275Z,8.27
2017-12-21T00:07:03.937Z,8.40
2017-12-21T00:09:31.507Z,6.17
2017-12-21T00:12:00.607Z,7.20
2017-12-21T00:14:29.686Z,7.40
2017-12-21T00:16:57.355Z,11.37
2017-12-21T00:19:25.016Z,9.70
2017-12-21T00:21:52.686Z,8.47
2017-12-21T00:24:21.029Z,11.00
2017-12-21T00:26:48.640Z,8.10
2017-12-21T00:29:17.003Z,6.30
2017-12-21T00:31:46.146Z,14.37
2017-12-21T00:34:13.764Z,13.47
2017-12-21T00:36:42.960Z,10.33
2017-12-21T00:39:10.545Z,9.03
2017-12-21T00:41:38.915Z,14.47
2017-12-21T00:44:06.567Z,14.20
2017-12-21T00:46:35.764Z,9.03
2017-12-21T00:49:04.143Z,20.97
2017-12-21T00:51:31.740Z,15.23
2017-12-21T00:54:00.108Z,16.97
2017-12-21T00:56:28.577Z,11.20
2017-12-21T00:58:57.039Z,22.00
2017-12-21T01:01:24.716Z,18.63
2017-12-21T01:03:52.329Z,17.63
2017-12-21T01:06:19.931Z,22.93
2017-12-21T01:08:49.125Z,17.37
2017-12-21T01:11:17.475Z,14.10
2017-12-21T01:13:45.076Z,13.20
2017-12-21T01:16:13.451Z,16.93
2017-12-21T01:18:41.815Z,18.63
2017-12-21T01:21:09.489Z,21.00
2017-12-21T01:23:37.088Z,13.00
2017-12-21T01:26:05.535Z,18.60
2017-12-21T01:28:33.924Z,11.07
2017-12-21T01:31:01.579Z,13.27
2017-12-21T01:33:29.951Z,20.67
2017-12-21T01:35:57.620Z,13.73
2017-12-21T01:38:25.996Z,19.00
2017-12-21T01:40:53.602Z,18.93
2017-12-21T01:43:21.181Z,14.90
2017-12-21T01:45:48.883Z,17.17
2017-12-21T01:48:16.463Z,21.97
2017-12-21T01:50:44.841Z,25.53
2017-12-21T01:53:13.199Z,16.70
2017-12-21T01:55:40.800Z,15.87
2017-12-21T01:58:09.212Z,16.77
2017-12-21T02:00:36.828Z,17.43
2017-12-21T02:03:05.296Z,23.67
2017-12-21T02:05:34.462Z,27.47
2017-12-21T02:08:02.049Z,23.93
2017-12-21T02:10:29.715Z,21.90
2017-12-21T02:12:57.371Z,21.57
2017-12-21T02:15:25.724Z,32.70
2017-12-21T02:17:53.332Z,27.73
2017-12-21T02:20:21.679Z,33.93
2017-12-21T02:22:49.356Z,28.63
2017-12-21T02:25:17.744Z,28.00
2017-12-21T02:27:45.404Z,29.00
2017-12-21T02:30:13.771Z,29.57
2017-12-21T02:32:41.384Z,34.87
2017-12-21T02:35:08.972Z,34.50
2017-12-21T02:37:36.665Z,35.83
2017-12-21T02:40:05.057Z,31.43
2017-12-21T02:42:32.669Z,30.10
2017-12-21T02:45:00.252Z,36.23
2017-12-21T02:47:27.885Z,25.53
2017-12-21T02:49:55.492Z,22.20
2017-12-21T02:52:23.872Z,28.47
2017-12-21T02:54:51.540Z,23.33
2017-12-21T02:57:19.127Z,20.97
2017-12-21T02:59:47.495Z,32.53
2017-12-21T03:02:15.840Z,23.43
2017-12-21T03:04:43.444Z,22.63
2017-12-21T03:07:11.800Z,24.00
2017-12-21T03:09:39.404Z,29.60
2017-12-21T03:12:06.993Z,26.60
2017-12-21T03:14:34.684Z,21.37
2017-12-21T03:17:02.339Z,19.03
2017-12-21T03:19:30.824Z,28.33
2017-12-21T03:22:00.020Z,18.97
2017-12-21T03:24:28.504Z,19.13
2017-12-21T03:26:56.892Z,20.00
2017-12-21T03:29:24.543Z,15.30
2017-12-21T03:31:52.892Z,12.20
2017-12-21T03:34:20.587Z,14.80
2017-12-21T03:36:48.172Z,14.73
2017-12-21T03:39:16.569Z,10.63
2017-12-21T03:41:44.153Z,11.00
2017-12-21T03:44:11.736Z,11.20
2017-12-21T03:46:39.407Z,12.13
2017-12-21T03:49:07.089Z,11.67
2017-12-21T03:51:34.740Z,11.70
2017-12-21T03:54:03.092Z,13.20
2017-12-21T03:56:30.777Z,11.37
2017-12-21T03:58:58.444Z,11.40
2017-12-21T04:01:26.929Z,13.40
2017-12-21T04:03:55.272Z,12.83
2017-12-21T04:06:22.866Z,14.97
2017-12-21T04:08:52.072Z,15.70
2017-12-21T04:11:19.676Z,14.03
2017-12-21T04:13:47.256Z,7.57
2017-12-21T04:16:14.948Z,7.27
2017-12-21T04:18:42.531Z,8.33
2017-12-21T04:21:10.871Z,8.30
2017-12-21T04:23:38.559Z,6.40
2017-12-21T04:26:06.152Z,6.80
2017-12-21T04:28:33.787Z,6.60
2017-12-21T04:31:01.446Z,6.93
2017-12-21T04:33:29.056Z,7.50
2017-12-21T04:35:56.668Z,6.80
2017-12-21T04:38:25.032Z,8.00
2017-12-21T04:40:52.703Z,6.63
2017-12-21T04:43:21.091Z,6.57
2017-12-21T04:45:48.760Z,7.80
2017-12-21T04:48:16.384Z,6.63
2017-12-21T04:50:43.968Z,6.40
2017-12-21T04:53:11.628Z,7.10
2017-12-21T04:55:39.300Z,6.87
2017-12-21T04:58:07.643Z,9.40
2017-12-21T05:00:35.340Z,6.67
2017-12-21T05:03:03.713Z,6.57
2017-12-21T05:05:31.312Z,8.00
2017-12-21T05:07:59.760Z,7.63
2017-12-21T05:10:28.961Z,12.73
2017-12-21T05:12:57.305Z,8.50
2017-12-21T05:15:24.899Z,9.97
2017-12-21T05:17:53.244Z,8.80
2017-12-21T05:20:20.856Z,16.00
2017-12-21T05:22:49.208Z,11.80
2017-12-21T05:25:16.888Z,15.60
2017-12-21T05:27:44.467Z,11.97
2017-12-21T05:30:12.855Z,10.90
2017-12-21T05:32:41.299Z,9.53
2017-12-21T05:35:08.962Z,12.53
2017-12-21T05:37:38.168Z,7.40
2017-12-21T05:40:06.517Z,8.37
2017-12-21T05:42:34.119Z,7.40
2017-12-21T05:45:02.473Z,8.00
2017-12-21T05:47:30.766Z,6.30
2017-12-21T05:49:59.103Z,5.17
2017-12-21T05:52:26.808Z,5.47
2017-12-21T05:54:55.152Z,5.00
2017-12-21T05:57:22.752Z,4.77
2017-12-21T05:59:50.332Z,6.17
2017-12-21T06:02:18.740Z,4.20
2017-12-21T06:04:46.343Z,6.20
2017-12-21T06:07:14.895Z,4.17
2017-12-21T06:09:42.497Z,5.00
2017-12-21T06:12:10.839Z,4.83
2017-12-21T06:14:38.440Z,6.47
2017-12-21T06:17:06.088Z,5.23
2017-12-21T06:19:35.204Z,5.13
2017-12-21T06:22:02.857Z,5.90
2017-12-21T06:24:32.048Z,3.80
2017-12-21T06:26:59.781Z,4.30
2017-12-21T06:29:27.375Z,4.40
2017-12-21T06:31:55.720Z,5.03
2017-12-21T06:34:23.320Z,4.00
2017-12-21T06:36:52.497Z,3.83
2017-12-21T06:39:20.185Z,3.50
2017-12-21T06:41:47.845Z,3.50
2017-12-21T06:44:17.044Z,2.93
2017-12-21T06:46:45.383Z,4.10
2017-12-21T06:49:12.988Z,4.20
2017-12-21T06:51:40.644Z,2.87
2017-12-21T06:54:09.033Z,3.73
2017-12-21T06:56:36.632Z,4.23
2017-12-21T06:59:04.213Z,4.17
2017-12-21T07:01:31.915Z,4.93
2017-12-21T07:03:59.496Z,4.80
2017-12-21T07:06:27.864Z,5.70
2017-12-21T07:08:56.227Z,5.30
2017-12-21T07:11:23.833Z,6.27
2017-12-21T07:13:51.517Z,5.80
2017-12-21T07:16:19.120Z,4.77
2017-12-21T07:18:46.701Z,6.87
2017-12-21T07:21:15.060Z,7.50
2017-12-21T07:23:42.640Z,6.00
2017-12-21T07:26:10.989Z,5.47
2017-12-21T07:28:38.596Z,6.03
2017-12-21T07:31:06.175Z,7.00
2017-12-21T07:33:33.771Z,8.43
2017-12-21T07:36:01.361Z,10.90
2017-12-21T07:38:29.823Z,7.80
2017-12-21T07:40:58.163Z,7.43
2017-12-21T07:43:25.864Z,6.80
2017-12-21T07:45:54.952Z,6.70
2017-12-21T07:48:22.564Z,6.70
2017-12-21T07:50:50.179Z,10.47
2017-12-21T07:53:18.549Z,8.30
2017-12-21T07:55:46.136Z,11.20
2017-12-21T07:58:15.380Z,12.20
2017-12-21T08:00:42.988Z,8.87
2017-12-21T08:03:10.649Z,12.63
2017-12-21T08:05:39.132Z,11.37
2017-12-21T08:08:08.220Z,12.10
2017-12-21T08:10:35.815Z,10.97
2017-12-21T08:13:04.266Z,12.07
2017-12-21T08:15:33.468Z,10.70
2017-12-21T08:18:01.127Z,15.70
2017-12-21T08:20:30.239Z,11.70
2017-12-21T08:22:58.612Z,14.17
2017-12-21T08:25:26.986Z,10.80
2017-12-21T08:27:56.189Z,11.87
2017-12-21T08:30:25.303Z,13.20
2017-12-21T08:32:53.659Z,14.43
2017-12-21T08:35:21.262Z,13.37
2017-12-21T08:37:48.884Z,15.63
2017-12-21T08:40:18.076Z,11.20
2017-12-21T08:42:45.666Z,12.77
2017-12-21T08:45:14.038Z,12.90
2017-12-21T08:47:42.503Z,13.40
2017-12-21T08:50:11.615Z,14.10
2017-12-21T08:52:39.984Z,14.07
2017-12-21T08:55:09.185Z,16.20
2017-12-21T08:57:36.839Z,12.77
2017-12-21T09:00:04.508Z,19.63
2017-12-21T09:02:32.881Z,11.53
2017-12-21T09:05:02.084Z,15.27
2017-12-21T09:07:29.744Z,11.50
2017-12-21T09:09:58.189Z,15.00
2017-12-21T09:12:25.801Z,16.83
2017-12-21T09:14:54.157Z,14.50
2017-12-21T09:17:21.832Z,11.63
2017-12-21T09:19:50.925Z,14.83
2017-12-21T09:22:20.050Z,12.40
2017-12-21T09:24:48.508Z,15.57
2017-12-21T09:27:16.169Z,15.23
2017-12-21T09:29:44.547Z,15.33
2017-12-21T09:32:12.212Z,11.57
2017-12-21T09:34:39.873Z,14.17
2017-12-21T09:37:07.531Z,15.23
2017-12-21T09:39:35.896Z,14.10
2017-12-21T09:42:03.471Z,11.33
2017-12-21T09:44:31.076Z,15.37
2017-12-21T09:46:58.660Z,17.57
2017-12-21T09:49:26.259Z,15.90
2017-12-21T09:51:54.640Z,21.30
2017-12-21T09:54:23.012Z,12.77
2017-12-21T09:56:50.591Z,14.17
2017-12-21T09:59:18.202Z,13.30
2017-12-21T10:01:45.780Z,9.47
2017-12-21T10:04:13.388Z,12.37
2017-12-21T10:06:41.839Z,14.53
2017-12-21T10:09:10.216Z,12.70
2017-12-21T10:11:38.609Z,13.63
2017-12-21T10:14:06.212Z,12.90
2017-12-21T10:16:33.828Z,8.97
2017-12-21T10:19:01.441Z,12.30
2017-12-21T10:21:29.021Z,8.13
2017-12-21T10:23:56.717Z,19.60
2017-12-21T10:26:25.080Z,9.57
2017-12-21T10:28:52.655Z,7.03
2017-12-21T10:31:21.843Z,10.40
2017-12-21T10:33:49.512Z,12.80
2017-12-21T10:36:17.998Z,11.13
2017-12-21T10:38:45.644Z,8.23
2017-12-21T10:41:13.319Z,10.90
2017-12-21T10:43:40.983Z,9.20
2017-12-21T10:46:08.647Z,8.73
2017-12-21T10:48:36.233Z,14.23
2017-12-21T10:51:04.689Z,11.83
2017-12-21T10:53:33.063Z,8.93
2017-12-21T10:56:00.664Z,9.20
2017-12-21T10:58:29.105Z,9.20
2017-12-21T11:00:57.483Z,13.43
2017-12-21T11:03:25.063Z,13.67
2017-12-21T11:05:52.724Z,21.43
2017-12-21T11:08:20.376Z,11.43
2017-12-21T11:10:47.964Z,13.17
2017-12-21T11:13:16.336Z,8.67
2017-12-21T11:15:44.791Z,12.57
2017-12-21T11:18:12.402Z,17.87
2017-12-21T11:20:40.024Z,7.70
2017-12-21T11:23:07.618Z,4.70
2017-12-21T11:25:35.977Z,11.67
2017-12-21T11:28:04.345Z,4.77
2017-12-21T11:30:32.786Z,10.53
2017-12-21T11:33:00.384Z,6.70
2017-12-21T11:35:27.973Z,10.63
2017-12-21T11:37:56.421Z,4.30
2017-12-21T11:40:24.773Z,6.43
2017-12-21T11:42:52.468Z,3.63
2017-12-21T11:45:20.816Z,11.60
2017-12-21T11:47:48.396Z,4.13
2017-12-21T11:50:16.059Z,6.73
2017-12-21T11:52:43.628Z,8.30
2017-12-21T11:55:11.232Z,4.27
2017-12-21T11:57:39.761Z,7.60
2017-12-21T12:00:08.440Z,18.70
2017-12-21T12:02:36.813Z,6.40
2017-12-21T12:05:04.509Z,5.90
2017-12-21T12:07:32.169Z,4.93
2017-12-21T12:09:59.834Z,5.77
2017-12-21T12:12:28.213Z,4.63
2017-12-21T12:14:57.331Z,7.93
2017-12-21T12:17:25.675Z,6.97
2017-12-21T12:19:53.280Z,5.30
2017-12-21T12:22:21.629Z,13.73
2017-12-21T12:24:49.997Z,8.17
2017-12-21T12:27:17.584Z,8.50
2017-12-21T12:29:45.961Z,12.10
2017-12-21T12:32:14.316Z,12.87
2017-12-21T12:34:41.988Z,23.97
2017-12-21T12:37:10.333Z,6.73
2017-12-21T12:39:37.928Z,12.63
2017-12-21T12:42:05.532Z,9.83
2017-12-21T12:44:33.116Z,7.80
2017-12-21T12:47:00.816Z,7.40
2017-12-21T12:49:28.401Z,6.17
2017-12-21T12:51:56.836Z,16.60
2017-12-21T12:54:24.415Z,16.70
2017-12-21T12:56:52.899Z,12.03
2017-12-21T12:59:22.096Z,14.97
2017-12-21T13:01:49.750Z,6.13
2017-12-21T13:04:17.337Z,14.10
2017-12-21T13:06:45.724Z,12.47
2017-12-21T13:09:14.069Z,8.77
2017-12-21T13:11:41.753Z,11.60
2017-12-21T13:14:09.404Z,7.70
2017-12-21T13:16:37.788Z,11.07
2017-12-21T13:19:06.984Z,10.60
2017-12-21T13:21:35.428Z,15.27
2017-12-21T13:24:03.136Z,20.60
2017-12-21T13:26:31.487Z,15.53
2017-12-21T13:28:59.091Z,13.97
2017-12-21T13:31:27.440Z,12.03
2017-12-21T13:33:55.892Z,13.23
2017-12-21T13:36:23.493Z,8.90
2017-12-21T13:38:51.860Z,9.67
2017-12-21T13:41:19.440Z,9.23
2017-12-21T13:43:47.054Z,13.60
2017-12-21T13:46:14.631Z,9.47
2017-12-21T13:48:42.236Z,13.93
2017-12-21T13:51:10.704Z,14.93
2017-12-21T13:53:38.360Z,12.03
2017-12-21T13:56:06.832Z,16.00
2017-12-21T13:58:34.504Z,19.17
2017-12-21T14:01:02.989Z,14.67
2017-12-21T14:03:31.368Z,21.10
2017-12-21T14:06:00.567Z,10.43
2017-12-21T14:08:28.920Z,17.53
2017-12-21T14:10:56.599Z,12.83
2017-12-21T14:13:24.184Z,12.27
2017-12-21T14:15:52.553Z,16.47
2017-12-21T14:18:20.208Z,8.00
2017-12-21T14:20:49.320Z,6.97
2017-12-21T14:23:17.677Z,10.00
2017-12-21T14:25:45.343Z,15.73
2017-12-21T14:28:14.543Z,22.33
2017-12-21T14:30:42.170Z,17.67
2017-12-21T14:33:09.747Z,7.40
2017-12-21T14:35:37.337Z,10.00
2017-12-21T14:38:04.944Z,31.07
2017-12-21T14:40:32.552Z,8.30
2017-12-21T14:43:00.912Z,6.60
2017-12-21T14:45:28.492Z,21.77
2017-12-21T14:47:56.092Z,17.83
2017-12-21T14:50:23.673Z,9.33
2017-12-21T14:52:51.384Z,13.00
2017-12-21T14:55:19.760Z,26.40
2017-12-21T14:57:48.875Z,19.13
2017-12-21T15:00:17.229Z,11.90
2017-12-21T15:02:44.836Z,9.13
2017-12-21T15:05:12.420Z,17.20
2017-12-21T15:07:40.119Z,10.23
2017-12-21T15:10:07.784Z,12.90
2017-12-21T15:12:36.873Z,15.40
2017-12-21T15:15:05.993Z,17.77
2017-12-21T15:17:34.336Z,17.53
2017-12-21T15:20:01.944Z,12.83
2017-12-21T15:22:30.293Z,16.90
2017-12-21T15:24:58.668Z,20.20
2017-12-21T15:27:26.249Z,7.13
2017-12-21T15:29:54.621Z,10.23
2017-12-21T15:32:23.776Z,19.57
2017-12-21T15:34:51.475Z,10.47
2017-12-21T15:37:19.125Z,15.77
2017-12-21T15:39:46.795Z,13.70
2017-12-21T15:42:14.472Z,11.10
2017-12-21T15:44:43.672Z,11.60
2017-12-21T15:47:11.261Z,12.93
2017-12-21T15:49:38.853Z,12.00
2017-12-21T15:52:06.460Z,13.13
2017-12-21T15:54:34.813Z,10.33
2017-12-21T15:57:02.424Z,10.93
2017-12-21T15:59:30.004Z,10.00
2017-12-21T16:01:57.716Z,11.63
2017-12-21T16:04:26.810Z,10.07
2017-12-21T16:06:56.170Z,18.47
2017-12-21T16:09:23.751Z,18.90
2017-12-21T16:11:51.356Z,10.73
2017-12-21T16:14:19.820Z,16.97
2017-12-21T16:16:48.188Z,14.67
2017-12-21T16:19:15.777Z,13.97
2017-12-21T16:21:44.148Z,17.27
2017-12-21T16:24:12.491Z,7.13
2017-12-21T16:26:40.242Z,16.07
2017-12-21T16:29:07.829Z,11.03
2017-12-21T16:31:35.508Z,11.43
2017-12-21T16:34:03.871Z,9.33
2017-12-21T16:36:31.461Z,29.43
2017-12-21T16:38:59.831Z,12.00
2017-12-21T16:41:28.205Z,9.87
2017-12-21T16:43:57.315Z,16.00
2017-12-21T16:46:25.669Z,12.73
2017-12-21T16:48:53.350Z,15.23
2017-12-21T16:51:20.939Z,16.60
2017-12-21T16:53:48.536Z,12.27
2017-12-21T16:56:16.234Z,12.40
2017-12-21T16:58:44.609Z,12.77
2017-12-21T17:01:13.696Z,15.23
2017-12-21T17:03:41.278Z,17.43
2017-12-21T17:06:09.742Z,8.53
2017-12-21T17:08:37.330Z,20.63
2017-12-21T17:11:05.699Z,15.80
2017-12-21T17:13:33.297Z,20.43
2017-12-21T17:16:00.900Z,9.73
2017-12-21T17:18:28.489Z,12.83
2017-12-21T17:20:56.856Z,22.33
2017-12-21T17:23:25.209Z,11.40
2017-12-21T17:25:52.815Z,16.27
2017-12-21T17:28:21.169Z,22.23
2017-12-21T17:30:50.279Z,5.80
2017-12-21T17:33:18.648Z,22.67
2017-12-21T17:35:47.764Z,12.93
2017-12-21T17:38:16.221Z,11.47
2017-12-21T17:40:44.587Z,10.33
2017-12-21T17:43:12.230Z,13.80
2017-12-21T17:45:39.807Z,9.07
2017-12-21T17:48:07.416Z,10.10
2017-12-21T17:50:35.830Z,21.07
2017-12-21T17:53:03.440Z,15.97
2017-12-21T17:55:31.019Z,14.20
2017-12-21T17:57:59.383Z,16.13
2017-12-21T18:00:27.742Z,19.10
2017-12-21T18:02:55.407Z,10.90
2017-12-21T18:05:23.078Z,7.60
2017-12-21T18:07:52.277Z,17.67
2017-12-21T18:10:20.624Z,23.17
2017-12-21T18:12:48.316Z,22.50
2017-12-21T18:15:15.983Z,13.63
2017-12-21T18:17:45.180Z,19.43
2017-12-21T18:20:13.525Z,17.53
2017-12-21T18:22:41.229Z,23.25
2017-12-21T18:25:08.817Z,22.97
2017-12-21T18:27:36.404Z,22.90
2017-12-21T18:30:04.008Z,10.50
2017-12-21T18:32:31.591Z,14.37
2017-12-21T18:34:59.965Z,23.83
2017-12-21T18:37:28.328Z,21.13
2017-12-21T18:39:57.531Z,20.80
2017-12-21T18:42:25.900Z,16.93
2017-12-21T18:44:53.516Z,14.23
2017-12-21T18:47:21.128Z,23.57
2017-12-21T18:49:49.612Z,21.10
2017-12-21T18:52:17.219Z,32.23
2017-12-21T18:54:44.924Z,18.73
2017-12-21T18:57:12.521Z,20.70
2017-12-21T18:59:40.894Z,20.70
2017-12-21T19:02:09.246Z,18.10
2017-12-21T19:04:36.851Z,13.20
2017-12-21T19:07:04.456Z,21.50
2017-12-21T19:09:32.099Z,14.47
2017-12-21T19:11:59.800Z,20.37
2017-12-21T19:14:28.157Z,26.17
2017-12-21T19:16:55.772Z,24.70
2017-12-21T19:19:24.120Z,21.07
2017-12-21T19:21:51.796Z,15.20
2017-12-21T19:24:20.164Z,17.17
2017-12-21T19:26:47.834Z,15.43
2017-12-21T19:29:16.188Z,21.10
2017-12-21T19:31:43.868Z,14.47
2017-12-21T19:34:11.452Z,23.20
2017-12-21T19:36:39.819Z,24.33
2017-12-21T19:39:08.985Z,17.33
2017-12-21T19:41:36.663Z,20.07
2017-12-21T19:44:04.333Z,14.23
2017-12-21T19:46:32.001Z,19.97
2017-12-21T19:49:01.187Z,20.63
2017-12-21T19:51:28.768Z,12.00
2017-12-21T19:53:57.139Z,14.50
2017-12-21T19:56:25.484Z,8.00
2017-12-21T19:58:53.175Z,15.27
2017-12-21T20:01:20.840Z,22.83
2017-12-21T20:03:48.488Z,18.70
2017-12-21T20:06:16.163Z,17.97
2017-12-21T20:08:43.829Z,17.50
2017-12-21T20:11:12.177Z,22.90
2017-12-21T20:13:39.780Z,21.50
2017-12-21T20:16:08.136Z,22.47
2017-12-21T20:18:35.725Z,35.03
2017-12-21T20:21:04.187Z,26.93
2017-12-21T20:23:31.763Z,20.47
2017-12-21T20:25:59.408Z,17.73
2017-12-21T20:28:26.993Z,13.70
2017-12-21T20:30:55.360Z,26.40
2017-12-21T20:33:23.731Z,10.37
2017-12-21T20:35:52.844Z,11.50
2017-12-21T20:38:21.200Z,19.53
2017-12-21T20:40:48.808Z,12.60
2017-12-21T20:43:16.388Z,15.67
2017-12-21T20:45:43.996Z,10.33
2017-12-21T20:48:11.669Z,17.83
2017-12-21T20:50:40.098Z,12.93
2017-12-21T20:53:07.725Z,15.63
2017-12-21T20:55:36.132Z,20.33
2017-12-21T20:58:03.944Z,14.73
2017-12-21T21:00:33.125Z,15.67
2017-12-21T21:03:00.970Z,11.53
2017-12-21T21:05:28.671Z,11.00
2017-12-21T21:07:56.256Z,10.83
2017-12-21T21:10:24.729Z,12.83
2017-12-21T21:12:53.128Z,7.47
2017-12-21T21:15:21.580Z,14.47
2017-12-21T21:17:49.239Z,9.00
2017-12-21T21:20:16.908Z,17.17
2017-12-21T21:22:46.094Z,18.50
2017-12-21T21:25:13.765Z,10.37
2017-12-21T21:27:41.364Z,8.13
2017-12-21T21:30:08.988Z,16.17
2017-12-21T21:32:37.356Z,13.60
2017-12-21T21:35:05.027Z,14.07
2017-12-21T21:37:32.692Z,14.57
2017-12-21T21:40:00.267Z,8.23
2017-12-21T21:42:27.923Z,20.63
2017-12-21T21:44:56.338Z,13.40
2017-12-21T21:47:24.775Z,17.20
2017-12-21T21:49:52.439Z,10.73
2017-12-21T21:52:20.896Z,16.90
2017-12-21T21:54:48.579Z,21.73
2017-12-21T21:57:16.164Z,21.90
2017-12-21T21:59:44.533Z,15.57
2017-12-21T22:02:12.183Z,19.37
2017-12-21T22:04:39.792Z,18.13
2017-12-21T22:07:07.416Z,19.37
2017-12-21T22:09:35.071Z,24.57
2017-12-21T22:12:02.745Z,21.07
2017-12-21T22:14:31.123Z,17.60
2017-12-21T22:16:59.500Z,27.73
2017-12-21T22:19:27.868Z,18.83
2017-12-21T22:21:55.452Z,13.60
2017-12-21T22:24:23.828Z,30.83
2017-12-21T22:26:51.480Z,19.60
2017-12-21T22:29:19.960Z,19.70
2017-12-21T22:31:48.452Z,20.07
2017-12-21T22:34:17.544Z,23.03
2017-12-21T22:36:46.651Z,21.03
2017-12-21T22:39:15.125Z,32.50
2017-12-21T22:41:43.605Z,32.83
2017-12-21T22:44:11.268Z,20.10
2017-12-21T22:46:38.872Z,22.20
2017-12-21T22:49:06.456Z,28.63
2017-12-21T22:51:34.057Z,19.23
2017-12-21T22:54:01.721Z,21.57
2017-12-21T22:56:29.379Z,16.30
2017-12-21T22:58:57.732Z,36.60
2017-12-21T23:01:25.416Z,19.30
2017-12-21T23:03:53.796Z,27.20
2017-12-21T23:06:22.991Z,23.83
2017-12-21T23:08:50.661Z,22.03
2017-12-21T23:11:18.324Z,22.63
2017-12-21T23:13:47.441Z,23.90
2017-12-21T23:16:15.787Z,23.60
2017-12-21T23:18:43.397Z,18.40
2017-12-21T23:21:10.980Z,21.23
2017-12-21T23:23:38.583Z,20.33
2017-12-21T23:26:06.240Z,22.23
2017-12-21T23:28:33.844Z,17.80
2017-12-21T23:31:01.464Z,13.20
2017-12-21T23:33:29.831Z,15.47
2017-12-21T23:35:57.412Z,18.63
2017-12-21T23:38:25.788Z,17.93
2017-12-21T23:40:54.136Z,11.00
2017-12-21T23:43:21.739Z,15.00
2017-12-21T23:45:50.104Z,8.27
2017-12-21T23:48:19.211Z,10.53
2017-12-21T23:50:46.860Z,28.83
2017-12-21T23:53:14.486Z,13.23
2017-12-21T23:55:42.089Z,10.97
2017-12-21T23:58:10.436Z,14.00
